createdAt,value
2018-07-13T00:01:10.867Z,99.90
2018-07-13T00:03:44.612Z,99.90
2018-07-13T00:06:18.460Z,99.90
2018-07-13T00:08:52.072Z,99.90
2018-07-13T00:11:25.901Z,99.90
2018-07-13T00:13:59.615Z,99.90
2018-07-13T00:16:33.431Z,99.90
2018-07-13T00:19:07.208Z,99.90
2018-07-13T00:21:40.977Z,99.90
2018-07-13T00:24:15.632Z,99.90
2018-07-13T00:26:49.345Z,99.90
2018-07-13T00:29:23.871Z,99.90
2018-07-13T00:31:57.543Z,99.90
2018-07-13T00:34:31.400Z,99.90
2018-07-13T00:37:06.074Z,99.90
2018-07-13T00:39:39.794Z,99.90
2018-07-13T00:42:13.639Z,99.90
2018-07-13T00:44:47.295Z,99.90
2018-07-13T00:47:21.154Z,99.90
2018-07-13T00:49:54.898Z,99.90
2018-07-13T00:52:28.768Z,99.90
2018-07-13T00:55:03.437Z,99.90
2018-07-13T00:57:38.717Z,99.90
2018-07-13T01:00:13.312Z,99.90
2018-07-13T01:02:47.046Z,99.90
2018-07-13T01:05:20.686Z,99.90
2018-07-13T01:07:54.524Z,99.90
2018-07-13T01:10:28.153Z,99.90
2018-07-13T01:13:02.008Z,99.90
2018-07-13T01:15:35.860Z,99.90
2018-07-13T01:18:09.717Z,99.90
2018-07-13T01:20:44.279Z,99.90
2018-07-13T01:23:18.160Z,99.90
2018-07-13T01:25:52.076Z,99.90
2018-07-13T01:28:25.812Z,99.90
2018-07-13T01:30:59.384Z,99.90
2018-07-13T01:33:33.260Z,99.90
2018-07-13T01:36:07.116Z,99.90
2018-07-13T01:38:41.723Z,99.90
2018-07-13T01:41:15.357Z,99.90
2018-07-13T01:43:49.173Z,99.90
2018-07-13T01:46:23.072Z,99.90
2018-07-13T01:48:57.706Z,99.90
2018-07-13T01:51:31.417Z,99.90
2018-07-13T01:54:05.235Z,99.90
2018-07-13T01:56:39.105Z,99.90
2018-07-13T01:59:12.959Z,99.90
2018-07-13T02:01:46.829Z,99.90
2018-07-13T02:04:20.527Z,99.90
2018-07-13T02:06:54.370Z,99.90
2018-07-13T02:09:28.195Z,99.90
2018-07-13T02:12:02.723Z,99.90
2018-07-13T02:14:36.448Z,99.90
2018-07-13T02:17:11.055Z,99.90
2018-07-13T02:19:45.606Z,99.90
2018-07-13T02:22:19.415Z,99.90
2018-07-13T02:24:53.108Z,99.90
2018-07-13T02:27:26.952Z,99.90
2018-07-13T02:30:00.795Z,99.90
2018-07-13T02:32:34.627Z,99.90
2018-07-13T02:35:08.324Z,99.90
2018-07-13T02:37:41.983Z,99.90
2018-07-13T02:40:15.753Z,99.90
2018-07-13T02:42:50.400Z,99.90
2018-07-13T02:45:24.092Z,99.90
2018-07-13T02:47:57.945Z,99.90
2018-07-13T02:50:31.674Z,99.90
2018-07-13T02:53:06.364Z,99.90
2018-07-13T02:55:40.010Z,99.90
2018-07-13T02:58:14.682Z,99.90
2018-07-13T03:00:48.244Z,99.90
2018-07-13T03:03:21.940Z,99.90
2018-07-13T03:05:55.786Z,99.90
2018-07-13T03:08:30.368Z,99.90
2018-07-13T03:11:04.904Z,99.90
2018-07-13T03:13:38.618Z,99.90
2018-07-13T03:16:12.524Z,99.90
2018-07-13T03:18:46.381Z,99.90
2018-07-13T03:21:20.248Z,99.90
2018-07-13T03:23:54.091Z,99.90
2018-07-13T03:26:27.929Z,99.90
2018-07-13T03:29:01.783Z,99.90
2018-07-13T03:31:36.491Z,99.90
2018-07-13T03:34:10.339Z,99.90
2018-07-13T03:36:44.130Z,99.90
2018-07-13T03:39:17.982Z,99.90
2018-07-13T03:41:52.533Z,99.90
2018-07-13T03:44:26.324Z,99.90
2018-07-13T03:47:00.000Z,99.90
2018-07-13T03:49:33.838Z,99.90
2018-07-13T03:52:08.452Z,99.90
2018-07-13T03:54:42.869Z,99.90
2018-07-13T03:57:16.797Z,99.90
2018-07-13T03:59:50.611Z,99.90
2018-07-13T04:02:25.216Z,99.90
2018-07-13T04:04:58.993Z,99.90
2018-07-13T04:07:32.882Z,99.90
2018-07-13T04:10:07.504Z,99.90
2018-07-13T04:12:41.211Z,99.90
2018-07-13T04:15:15.887Z,99.90
2018-07-13T04:17:49.660Z,99.90
2018-07-13T04:20:23.482Z,99.90
2018-07-13T04:22:57.097Z,99.90
2018-07-13T04:25:31.708Z,99.90
2018-07-13T04:28:05.380Z,99.90
2018-07-13T04:30:39.954Z,99.90
2018-07-13T04:33:14.494Z,99.90
2018-07-13T04:35:48.303Z,99.90
2018-07-13T04:38:22.927Z,99.90
2018-07-13T04:40:57.599Z,99.90
2018-07-13T04:43:32.070Z,99.90
2018-07-13T04:46:06.710Z,99.90
2018-07-13T04:48:40.378Z,99.90
2018-07-13T04:51:15.048Z,99.90
2018-07-13T04:53:49.622Z,99.90
2018-07-13T04:56:24.347Z,99.90
2018-07-13T04:58:58.005Z,99.90
2018-07-13T05:01:32.600Z,99.90
2018-07-13T05:04:07.236Z,99.90
2018-07-13T05:06:40.991Z,99.90
2018-07-13T05:09:14.997Z,99.90
2018-07-13T05:11:48.903Z,99.90
2018-07-13T05:14:22.563Z,99.90
2018-07-13T05:16:56.413Z,99.90
2018-07-13T05:19:31.097Z,99.90
2018-07-13T05:22:05.572Z,99.90
2018-07-13T05:24:39.318Z,99.90
2018-07-13T05:27:13.000Z,99.90
2018-07-13T05:29:46.778Z,99.90
2018-07-13T05:32:20.661Z,99.90
2018-07-13T05:34:54.579Z,99.90
2018-07-13T05:37:28.337Z,99.90
2018-07-13T05:40:02.141Z,99.90
2018-07-13T05:42:36.664Z,99.90
2018-07-13T05:45:11.287Z,99.90
2018-07-13T05:47:45.073Z,99.90
2018-07-13T05:50:18.785Z,99.90
2018-07-13T05:52:52.541Z,99.90
2018-07-13T05:55:27.621Z,99.90
2018-07-13T05:58:01.312Z,99.90
2018-07-13T06:00:35.119Z,99.90
2018-07-13T06:03:09.153Z,99.90
2018-07-13T06:05:42.964Z,99.90
2018-07-13T06:08:17.478Z,99.90
2018-07-13T06:10:52.152Z,99.90
2018-07-13T06:13:25.838Z,99.90
2018-07-13T06:16:00.467Z,99.90
2018-07-13T06:18:34.212Z,99.90
2018-07-13T06:21:08.841Z,99.90
2018-07-13T06:23:42.714Z,99.90
2018-07-13T06:26:16.377Z,99.90
2018-07-13T06:28:51.364Z,99.90
2018-07-13T06:31:25.078Z,99.90
2018-07-13T06:33:58.920Z,99.90
2018-07-13T06:36:32.668Z,99.90
2018-07-13T06:39:06.580Z,99.90
2018-07-13T06:41:40.244Z,99.90
2018-07-13T06:44:14.120Z,99.90
2018-07-13T06:46:47.959Z,99.90
2018-07-13T06:49:22.541Z,99.90
2018-07-13T06:51:56.175Z,99.90
2018-07-13T06:54:30.103Z,99.90
2018-07-13T06:57:03.868Z,99.90
2018-07-13T06:59:38.412Z,99.90
2018-07-13T07:02:12.193Z,99.90
2018-07-13T07:04:45.988Z,99.90
2018-07-13T07:07:20.457Z,99.90
2018-07-13T07:09:54.268Z,99.90
2018-07-13T07:12:29.518Z,99.90
2018-07-13T07:15:03.217Z,99.90
2018-07-13T07:17:37.742Z,99.90
2018-07-13T07:20:11.589Z,99.90
2018-07-13T07:22:46.181Z,99.90
2018-07-13T07:25:19.958Z,99.90
2018-07-13T07:27:53.881Z,99.90
2018-07-13T07:30:28.284Z,99.90
2018-07-13T07:33:02.952Z,99.90
2018-07-13T07:35:37.672Z,99.90
2018-07-13T07:38:11.372Z,99.90
2018-07-13T07:40:46.020Z,99.90
2018-07-13T07:43:20.622Z,99.90
2018-07-13T07:45:55.217Z,99.90
2018-07-13T07:48:29.877Z,99.90
2018-07-13T07:51:04.598Z,99.90
2018-07-13T07:53:38.425Z,99.90
2018-07-13T07:56:12.219Z,99.90
2018-07-13T07:58:45.973Z,99.90
2018-07-13T08:01:19.659Z,99.90
2018-07-13T08:03:53.480Z,99.90
2018-07-13T08:06:27.484Z,99.90
2018-07-13T08:09:01.138Z,99.90
2018-07-13T08:11:34.924Z,99.90
2018-07-13T08:14:08.843Z,99.90
2018-07-13T08:16:42.356Z,99.90
2018-07-13T08:19:16.245Z,99.90
2018-07-13T08:21:50.692Z,94.50
2018-07-13T08:24:24.369Z,94.50
2018-07-13T08:26:59.010Z,77.70
2018-07-13T08:29:32.701Z,77.60
2018-07-13T08:32:06.522Z,72.20
2018-07-13T08:34:40.316Z,65.90
2018-07-13T08:37:14.057Z,67.70
2018-07-13T08:39:48.528Z,57.70
2018-07-13T08:42:22.933Z,56.00
2018-07-13T08:44:56.808Z,56.00
2018-07-13T08:47:30.624Z,54.30
2018-07-13T08:50:05.175Z,53.00
2018-07-13T08:52:38.932Z,53.00
2018-07-13T08:55:12.815Z,52.60
2018-07-13T08:57:46.974Z,51.40
2018-07-13T09:00:21.515Z,53.60
2018-07-13T09:02:55.167Z,53.40
2018-07-13T09:05:30.687Z,53.90
2018-07-13T09:08:04.477Z,51.00
2018-07-13T09:10:39.805Z,51.10
2018-07-13T09:13:13.696Z,51.30
2018-07-13T09:15:47.330Z,51.50
2018-07-13T09:18:21.856Z,52.10
2018-07-13T09:20:55.716Z,51.50
2018-07-13T09:23:29.524Z,52.40
2018-07-13T09:26:04.003Z,47.20
2018-07-13T09:28:37.707Z,47.20
2018-07-13T09:31:12.407Z,45.00
2018-07-13T09:33:46.995Z,44.50
2018-07-13T09:36:21.496Z,43.50
2018-07-13T09:38:55.149Z,44.00
2018-07-13T09:41:28.808Z,42.10
2018-07-13T09:44:02.553Z,43.30
2018-07-13T09:46:36.470Z,45.40
2018-07-13T09:49:10.344Z,43.40
2018-07-13T09:51:44.929Z,43.00
2018-07-13T09:54:18.705Z,42.40
2018-07-13T09:56:52.381Z,42.60
2018-07-13T09:59:26.058Z,42.50
2018-07-13T10:01:59.871Z,42.30
2018-07-13T10:04:33.577Z,42.80
2018-07-13T10:07:08.187Z,44.50
2018-07-13T10:09:41.779Z,44.40
2018-07-13T10:12:15.714Z,42.40
2018-07-13T10:14:49.441Z,42.00
2018-07-13T10:17:23.274Z,41.50
2018-07-13T10:19:57.049Z,40.70
2018-07-13T10:22:30.918Z,40.50
2018-07-13T10:25:04.744Z,41.30
2018-07-13T10:27:38.628Z,42.20
2018-07-13T10:30:13.061Z,44.60
2018-07-13T10:32:46.884Z,44.60
2018-07-13T10:35:21.581Z,44.90
2018-07-13T10:37:55.340Z,44.90
2018-07-13T10:40:28.994Z,45.30
2018-07-13T10:43:02.744Z,45.20
2018-07-13T10:45:38.035Z,45.50
2018-07-13T10:48:11.776Z,45.40
2018-07-13T10:50:45.491Z,45.00
2018-07-13T10:53:20.036Z,43.70
2018-07-13T10:55:53.784Z,43.70
2018-07-13T10:58:28.214Z,44.90
2018-07-13T11:01:01.787Z,45.00
2018-07-13T11:03:35.557Z,43.60
2018-07-13T11:06:09.308Z,44.80
2018-07-13T11:08:43.062Z,44.50
2018-07-13T11:11:16.870Z,43.60
2018-07-13T11:13:50.598Z,41.60
2018-07-13T11:16:24.325Z,40.90
2018-07-13T11:18:58.062Z,41.70
2018-07-13T11:21:31.856Z,43.90
2018-07-13T11:24:06.285Z,46.30
2018-07-13T11:26:40.769Z,46.50
2018-07-13T11:29:15.532Z,46.40
2018-07-13T11:31:49.181Z,45.30
2018-07-13T11:34:22.912Z,44.00
2018-07-13T11:36:56.685Z,42.90
2018-07-13T11:39:30.372Z,42.20
2018-07-13T11:42:04.244Z,42.50
2018-07-13T11:44:38.161Z,45.00
2018-07-13T11:47:11.936Z,45.10
2018-07-13T11:49:45.592Z,45.20
2018-07-13T11:52:19.344Z,45.60
2018-07-13T11:54:53.756Z,46.40
2018-07-13T11:57:27.561Z,46.00
2018-07-13T12:00:01.297Z,46.70
2018-07-13T12:02:35.041Z,47.10
2018-07-13T12:05:09.497Z,48.40
2018-07-13T12:07:43.303Z,48.40
2018-07-13T12:10:16.919Z,47.90
2018-07-13T12:12:51.554Z,48.10
2018-07-13T12:15:26.053Z,48.20
2018-07-13T12:18:00.712Z,46.40
2018-07-13T12:20:34.551Z,46.40
2018-07-13T12:23:08.517Z,47.10
2018-07-13T12:25:42.359Z,47.70
2018-07-13T12:28:16.181Z,48.60
2018-07-13T12:30:49.828Z,49.30
2018-07-13T12:33:23.629Z,49.70
2018-07-13T12:35:57.358Z,49.50
2018-07-13T12:38:31.161Z,49.40
2018-07-13T12:41:04.860Z,49.50
2018-07-13T12:43:38.736Z,49.60
2018-07-13T12:46:13.294Z,50.10
2018-07-13T12:48:47.146Z,50.00
2018-07-13T12:51:21.016Z,49.10
2018-07-13T12:53:54.700Z,49.30
2018-07-13T12:56:28.617Z,47.80
2018-07-13T12:59:03.232Z,47.70
2018-07-13T13:01:37.002Z,47.60
2018-07-13T13:04:10.743Z,47.50
2018-07-13T13:06:44.451Z,48.10
2018-07-13T13:09:18.309Z,48.00
2018-07-13T13:11:52.150Z,46.60
2018-07-13T13:14:25.936Z,46.90
2018-07-13T13:16:59.816Z,47.20
2018-07-13T13:19:33.684Z,46.80
2018-07-13T13:22:07.485Z,46.20
2018-07-13T13:24:42.116Z,44.50
2018-07-13T13:27:15.950Z,44.50
2018-07-13T13:29:49.655Z,43.70
2018-07-13T13:32:24.246Z,44.60
2018-07-13T13:34:59.507Z,44.20
2018-07-13T13:37:34.067Z,43.40
2018-07-13T13:40:08.655Z,43.90
2018-07-13T13:42:42.469Z,43.90
2018-07-13T13:45:16.272Z,43.60
2018-07-13T13:47:50.832Z,42.40
2018-07-13T13:50:24.538Z,42.40
2018-07-13T13:52:58.328Z,43.70
2018-07-13T13:55:32.123Z,44.00
2018-07-13T13:58:05.843Z,43.30
2018-07-13T14:00:39.487Z,43.90
2018-07-13T14:03:14.064Z,43.70
2018-07-13T14:05:47.738Z,43.60
2018-07-13T14:08:23.147Z,44.70
2018-07-13T14:10:56.784Z,44.80
2018-07-13T14:13:31.165Z,44.40
2018-07-13T14:16:04.921Z,44.40
2018-07-13T14:18:38.689Z,44.10
2018-07-13T14:21:13.344Z,44.00
2018-07-13T14:23:47.947Z,44.60
2018-07-13T14:26:21.770Z,44.60
2018-07-13T14:28:56.341Z,43.90
2018-07-13T14:31:30.083Z,43.90
2018-07-13T14:34:03.809Z,43.40
2018-07-13T14:36:37.497Z,43.10
2018-07-13T14:39:11.890Z,43.50
2018-07-13T14:41:46.419Z,43.00
2018-07-13T14:44:20.356Z,43.00
2018-07-13T14:46:54.154Z,42.60
2018-07-13T14:49:29.508Z,43.30
2018-07-13T14:52:04.077Z,42.40
2018-07-13T14:54:39.471Z,41.20
2018-07-13T14:57:13.353Z,41.20
2018-07-13T14:59:47.342Z,41.40
2018-07-13T15:02:21.833Z,39.80
2018-07-13T15:04:56.232Z,40.50
2018-07-13T15:07:30.313Z,40.50
2018-07-13T15:10:05.119Z,39.00
2018-07-13T15:12:39.293Z,39.00
2018-07-13T15:15:13.640Z,38.90
2018-07-13T15:17:48.047Z,38.90
2018-07-13T15:20:25.371Z,39.10
2018-07-13T15:22:59.161Z,39.00
2018-07-13T15:25:32.982Z,39.10
2018-07-13T15:28:06.750Z,39.20
2018-07-13T15:30:41.209Z,39.00
2018-07-13T15:33:14.845Z,38.60
2018-07-13T15:35:48.552Z,40.50
2018-07-13T15:38:22.285Z,41.20
2018-07-13T15:40:55.963Z,41.30
2018-07-13T15:43:29.681Z,40.60
2018-07-13T15:46:04.285Z,42.60
2018-07-13T15:48:38.112Z,42.50
2018-07-13T15:51:12.781Z,41.70
2018-07-13T15:53:46.597Z,41.70
2018-07-13T15:56:20.345Z,41.70
2018-07-13T15:58:54.221Z,41.80
2018-07-13T16:01:29.027Z,41.90
2018-07-13T16:04:03.353Z,42.20
2018-07-13T16:06:37.167Z,42.10
2018-07-13T16:09:11.979Z,42.20
2018-07-13T16:11:45.796Z,42.70
2018-07-13T16:14:19.976Z,42.20
2018-07-13T16:16:53.789Z,41.90
2018-07-13T16:19:27.674Z,41.70
2018-07-13T16:22:02.102Z,41.70
2018-07-13T16:24:36.832Z,41.20
2018-07-13T16:27:10.869Z,41.20
2018-07-13T16:29:46.186Z,40.80
2018-07-13T16:32:19.905Z,40.80
2018-07-13T16:34:53.817Z,40.80
2018-07-13T16:37:28.213Z,41.70
2018-07-13T16:40:02.230Z,41.70
2018-07-13T16:42:36.160Z,41.50
2018-07-13T16:45:10.856Z,41.00
2018-07-13T16:47:48.788Z,41.00
2018-07-13T16:50:23.245Z,41.60
2018-07-13T16:52:57.037Z,42.20
2018-07-13T16:55:31.476Z,42.30
2018-07-13T16:58:05.280Z,42.70
2018-07-13T17:00:39.809Z,42.10
2018-07-13T17:03:13.712Z,42.00
2018-07-13T17:05:47.508Z,42.50
2018-07-13T17:08:21.375Z,42.90
2018-07-13T17:10:55.947Z,42.70
2018-07-13T17:13:29.832Z,42.70
2018-07-13T17:16:04.397Z,43.10
2018-07-13T17:18:38.257Z,43.00
2018-07-13T17:21:12.941Z,42.30
2018-07-13T17:23:46.840Z,42.30
2018-07-13T17:26:21.567Z,42.50
2018-07-13T17:28:56.173Z,43.50
2018-07-13T17:31:30.692Z,42.70
2018-07-13T17:34:05.129Z,42.40
2018-07-13T17:36:38.893Z,42.40
2018-07-13T17:39:12.665Z,42.90
2018-07-13T17:41:47.052Z,43.80
2018-07-13T17:44:20.791Z,43.80
2018-07-13T17:46:54.433Z,44.10
2018-07-13T17:49:28.989Z,44.30
2018-07-13T17:52:02.910Z,44.10
2018-07-13T17:54:37.342Z,44.30
2018-07-13T17:57:11.181Z,44.30
2018-07-13T17:59:44.841Z,44.30
2018-07-13T18:02:18.620Z,44.40
2018-07-13T18:04:52.424Z,44.80
2018-07-13T18:07:26.284Z,45.10
2018-07-13T18:10:00.016Z,45.60
2018-07-13T18:12:33.779Z,45.40
2018-07-13T18:15:08.312Z,45.70
2018-07-13T18:17:42.087Z,45.20
2018-07-13T18:20:15.911Z,45.60
2018-07-13T18:22:49.617Z,46.00
2018-07-13T18:25:23.565Z,45.40
2018-07-13T18:27:57.469Z,46.10
2018-07-13T18:30:32.053Z,46.00
2018-07-13T18:33:05.776Z,46.00
2018-07-13T18:35:40.405Z,46.40
2018-07-13T18:38:15.696Z,46.30
2018-07-13T18:40:50.359Z,46.80
2018-07-13T18:43:25.023Z,47.10
2018-07-13T18:45:59.490Z,47.20
2018-07-13T18:48:34.101Z,47.60
2018-07-13T18:51:08.786Z,47.80
2018-07-13T18:53:42.544Z,47.50
2018-07-13T18:56:16.447Z,48.20
2018-07-13T18:58:50.299Z,48.50
2018-07-13T19:01:24.094Z,48.50
2018-07-13T19:03:58.700Z,48.70
2018-07-13T19:06:32.505Z,48.80
2018-07-13T19:09:07.106Z,49.20
2018-07-13T19:11:40.929Z,49.20
2018-07-13T19:14:14.803Z,50.00
2018-07-13T19:16:48.566Z,51.00
2018-07-13T19:19:23.157Z,52.50
2018-07-13T19:21:56.853Z,52.40
2018-07-13T19:24:32.220Z,54.10
2018-07-13T19:27:06.127Z,54.10
2018-07-13T19:29:39.811Z,54.70
2018-07-13T19:32:13.642Z,55.70
2018-07-13T19:34:47.441Z,56.20
2018-07-13T19:37:21.975Z,57.60
2018-07-13T19:39:56.549Z,58.00
2018-07-13T19:42:31.850Z,59.30
2018-07-13T19:45:05.762Z,59.30
2018-07-13T19:47:39.550Z,61.00
2018-07-13T19:50:14.136Z,62.50
2018-07-13T19:52:48.577Z,63.80
2018-07-13T19:55:22.404Z,63.80
2018-07-13T19:57:57.012Z,69.00
2018-07-13T20:00:30.856Z,69.00
2018-07-13T20:03:05.416Z,73.50
2018-07-13T20:05:39.132Z,73.50
2018-07-13T20:08:12.942Z,75.70
2018-07-13T20:10:46.795Z,77.50
2018-07-13T20:13:21.358Z,78.10
2018-07-13T20:15:55.232Z,78.60
2018-07-13T20:18:29.151Z,78.10
2018-07-13T20:21:02.969Z,79.00
2018-07-13T20:23:36.847Z,80.30
2018-07-13T20:26:10.537Z,81.70
2018-07-13T20:28:45.126Z,81.70
2018-07-13T20:31:19.007Z,81.70
2018-07-13T20:33:52.776Z,81.40
2018-07-13T20:36:27.328Z,81.70
2018-07-13T20:39:01.187Z,82.30
2018-07-13T20:41:35.055Z,82.30
2018-07-13T20:44:08.897Z,83.70
2018-07-13T20:46:43.552Z,86.70
2018-07-13T20:49:17.273Z,86.70
2018-07-13T20:51:51.068Z,88.70
2018-07-13T20:54:24.868Z,90.20
2018-07-13T20:56:59.352Z,91.20
2018-07-13T20:59:33.213Z,91.20
2018-07-13T21:02:07.772Z,91.30
2018-07-13T21:04:41.528Z,91.30
2018-07-13T21:07:15.158Z,91.30
2018-07-13T21:09:48.860Z,91.70
2018-07-13T21:12:22.774Z,91.90
2018-07-13T21:14:56.560Z,92.50
2018-07-13T21:17:31.266Z,92.80
2018-07-13T21:20:05.872Z,93.70
2018-07-13T21:22:40.276Z,93.50
2018-07-13T21:25:13.926Z,93.50
2018-07-13T21:27:48.518Z,93.80
2018-07-13T21:30:22.368Z,93.70
2018-07-13T21:32:56.925Z,95.10
2018-07-13T21:35:30.647Z,95.20
2018-07-13T21:38:04.400Z,95.40
2018-07-13T21:40:39.056Z,95.80
2018-07-13T21:43:14.339Z,96.50
2018-07-13T21:45:48.136Z,96.50
2018-07-13T21:48:21.960Z,97.10
2018-07-13T21:50:55.850Z,97.10
2018-07-13T21:53:29.670Z,97.00
2018-07-13T21:56:03.497Z,97.80
2018-07-13T21:58:37.124Z,97.30
2018-07-13T22:01:10.831Z,97.40
2018-07-13T22:03:44.577Z,97.70
2018-07-13T22:06:19.208Z,97.10
2018-07-13T22:08:53.688Z,98.10
2018-07-13T22:11:27.460Z,98.10
2018-07-13T22:14:01.354Z,98.60
2018-07-13T22:16:36.064Z,99.90
2018-07-13T22:19:09.904Z,99.80
2018-07-13T22:21:44.379Z,99.90
2018-07-13T22:24:18.146Z,99.90
2018-07-13T22:26:51.872Z,99.90
2018-07-13T22:29:25.611Z,99.90
2018-07-13T22:32:00.233Z,99.90
2018-07-13T22:34:34.091Z,99.90
2018-07-13T22:37:07.898Z,99.90
2018-07-13T22:39:42.436Z,99.90
2018-07-13T22:42:16.251Z,99.90
2018-07-13T22:44:50.090Z,99.90
2018-07-13T22:47:23.705Z,99.90
2018-07-13T22:49:58.285Z,99.90
2018-07-13T22:52:32.033Z,99.90
2018-07-13T22:55:06.570Z,99.90
2018-07-13T22:57:41.046Z,99.90
2018-07-13T23:00:14.788Z,99.90
2018-07-13T23:02:48.523Z,99.90
2018-07-13T23:05:22.441Z,99.90
2018-07-13T23:07:56.857Z,99.90
2018-07-13T23:10:30.503Z,99.90
2018-07-13T23:13:05.109Z,99.90
2018-07-13T23:15:39.740Z,99.90
2018-07-13T23:18:14.352Z,99.90
2018-07-13T23:20:47.973Z,99.90
2018-07-13T23:23:21.832Z,99.90
2018-07-13T23:25:56.473Z,99.90
2018-07-13T23:28:30.349Z,99.90
2018-07-13T23:31:04.100Z,99.90
2018-07-13T23:33:37.857Z,99.90
2018-07-13T23:36:11.680Z,99.90
2018-07-13T23:38:45.400Z,99.90
2018-07-13T23:41:19.178Z,99.90
2018-07-13T23:43:53.865Z,99.90
2018-07-13T23:46:27.568Z,99.90
2018-07-13T23:49:02.087Z,99.90
2018-07-13T23:51:35.908Z,99.90
2018-07-13T23:54:09.613Z,99.90
2018-07-13T23:56:43.458Z,99.90
2018-07-13T23:59:17.222Z,99.90
